Time;durP1;ratioP1;P1;durP2;ratioP2;P2;SDS_P1;SDS_P2;PMS_P1;PMS_P2;Temp;Humidity;BMP_temperature;BMP_pressure;BME280_temperature;BME280_humidity;BME280_pressure;Samples;Min_cycle;Max_cycle;Signal;HPM_P1;HPM_P2
2022/04/02 00:02:05;;;;;;;2.80;2.70;;;;;;;-0.31;100.00;100826.81;6102914;23;20052;-67
2022/04/02 00:04:32;;;;;;;4.70;3.55;;;;;;;-0.44;100.00;100801.09;6093891;23;20024;-67
2022/04/02 00:06:58;;;;;;;4.25;4.05;;;;;;;-0.37;100.00;100816.53;6100956;23;20020;-67
2022/04/02 00:09:25;;;;;;;2.20;2.10;;;;;;;-0.28;100.00;100835.38;6093898;23;20180;-64
2022/04/02 00:11:51;;;;;;;3.92;3.78;;;;;;;-0.20;100.00;100848.25;6112801;23;20178;-67
2022/04/02 00:14:18;;;;;;;2.22;2.13;;;;;;;-0.42;100.00;100824.28;6107238;23;20032;-67
2022/04/02 00:16:44;;;;;;;2.17;2.08;;;;;;;-0.23;100.00;100851.69;6123417;23;20124;-66
2022/04/02 00:19:11;;;;;;;2.30;2.20;;;;;;;-0.26;100.00;100832.78;6115951;23;20050;-66
2022/04/02 00:21:38;;;;;;;2.20;2.10;;;;;;;-0.39;100.00;100821.69;6122327;23;20033;-66
2022/04/02 00:24:06;;;;;;;3.28;3.17;;;;;;;-0.21;100.00;100847.38;6093831;23;20399;-64
2022/04/02 00:26:33;;;;;;;2.10;2.00;;;;;;;-0.32;100.00;100822.50;6097907;23;20368;-65
2022/04/02 00:29:00;;;;;;;3.80;3.67;;;;;;;-0.19;100.00;100849.94;6106851;23;20040;-65
2022/04/02 00:31:29;;;;;;;2.20;2.10;;;;;;;-0.35;100.00;100817.38;6113983;23;20009;-66
2022/04/02 00:33:56;;;;;;;4.40;4.20;;;;;;;-0.15;100.00;100853.38;6109847;23;20489;-65
2022/04/02 00:36:22;;;;;;;2.13;2.03;;;;;;;-0.33;100.00;100823.38;6115164;23;20081;-65
2022/04/02 00:38:50;;;;;;;3.28;3.15;;;;;;;-0.18;100.00;100856.84;6112358;23;20431;-65
2022/04/02 00:41:16;;;;;;;2.13;2.03;;;;;;;-0.16;100.00;100842.19;6112169;23;20028;-68
2022/04/02 00:43:58;;;;;;;2.60;2.50;;;;;;;-0.16;100.00;100846.47;6118999;23;20025;-65
2022/04/02 00:46:25;;;;;;;2.10;2.00;;;;;;;-0.17;100.00;100848.22;6103896;23;20449;-66
2022/04/02 00:48:54;;;;;;;3.75;3.60;;;;;;;-0.25;100.00;100845.66;6123687;23;20017;-65
2022/04/02 00:51:21;;;;;;;2.25;2.15;;;;;;;-0.18;100.00;100851.69;6092514;23;20391;-65
2022/04/02 00:53:50;;;;;;;2.53;2.42;;;;;;;-0.19;100.00;100855.09;6113942;23;20029;-66
2022/04/02 00:56:17;;;;;;;2.22;2.13;;;;;;;-0.16;100.00;100843.91;6094794;23;20017;-65
2022/04/02 00:58:44;;;;;;;2.20;2.10;;;;;;;-0.17;100.00;100840.47;6102654;23;20024;-65
2022/04/02 01:01:10;;;;;;;3.10;2.90;;;;;;;-0.53;100.00;100788.25;6086819;23;21023;-66
2022/04/02 01:03:37;;;;;;;2.20;2.10;;;;;;;-0.21;100.00;100836.19;6119567;23;20021;-65
2022/04/02 01:06:04;;;;;;;4.03;3.85;;;;;;;-0.33;100.00;100810.47;6113309;23;20024;-65
2022/04/02 01:08:31;;;;;;;2.05;1.95;;;;;;;-0.27;100.00;100828.50;6111869;23;20438;-66
2022/04/02 01:10:58;;;;;;;3.80;3.67;;;;;;;-0.16;100.00;100849.94;6105119;23;20477;-65
2022/04/02 01:13:25;;;;;;;2.30;2.20;;;;;;;-0.16;100.00;100849.06;6102349;23;20048;-65
2022/04/02 01:15:52;;;;;;;3.85;3.70;;;;;;;-0.16;100.00;100852.53;6113342;23;20688;-65
2022/04/02 01:18:18;;;;;;;2.30;2.20;;;;;;;-0.15;100.00;100835.31;6102545;23;20026;-65
2022/04/02 01:20:48;;;;;;;2.30;2.20;;;;;;;-0.15;100.00;100855.94;6112923;23;20017;-64
2022/04/02 01:23:15;;;;;;;2.17;2.08;;;;;;;-0.31;100.00;100822.50;6112754;23;20074;-65
2022/04/02 01:25:43;;;;;;;1.90;1.85;;;;;;;-0.47;100.00;100789.94;6118112;23;20082;-64
2022/04/02 01:28:10;;;;;;;2.70;2.60;;;;;;;-0.14;100.00;100858.53;6119401;23;20072;-64
2022/04/02 01:30:36;;;;;;;2.30;2.20;;;;;;;-0.37;100.00;100808.78;6111684;23;20096;-64
2022/04/02 01:33:03;;;;;;;3.58;3.47;;;;;;;-0.27;100.00;100821.59;6119530;23;20021;-65
2022/04/02 01:35:29;;;;;;;2.20;2.10;;;;;;;-0.13;100.00;100849.06;6113465;23;20033;-66
2022/04/02 01:37:56;;;;;;;3.97;3.80;;;;;;;-0.14;100.00;100843.06;6112116;23;20013;-65
2022/04/02 01:40:22;;;;;;;2.30;2.20;;;;;;;-0.12;100.00;100854.22;6130083;23;20504;-64
2022/04/02 01:42:49;;;;;;;2.97;2.88;;;;;;;-0.29;100.00;100832.81;6115384;23;20104;-65
2022/04/02 01:45:15;;;;;;;2.25;2.15;;;;;;;-0.10;100.00;100856.75;6127170;23;20068;-65
2022/04/02 01:47:42;;;;;;;2.00;1.90;;;;;;;-0.54;100.00;100775.34;6120755;23;20025;-63
2022/04/02 01:50:10;;;;;;;2.92;2.83;;;;;;;-0.08;100.00;100852.44;6112552;23;20238;-66
2022/04/02 01:52:37;;;;;;;2.20;2.10;;;;;;;-0.30;100.00;100818.19;6116508;23;20036;-65
2022/04/02 01:55:04;;;;;;;4.38;4.18;;;;;;;-0.09;100.00;100861.06;6117630;23;20025;-65
2022/04/02 01:57:31;;;;;;;2.20;2.10;;;;;;;-0.10;100.00;100860.22;6117434;23;20018;-66
2022/04/02 01:59:57;;;;;;;3.80;3.65;;;;;;;-0.08;100.00;100861.06;6118702;23;20483;-65
2022/04/02 02:02:23;;;;;;;2.45;2.35;;;;;;;-1.29;100.00;100640.06;6118204;23;20036;-65
2022/04/02 02:04:50;;;;;;;2.97;2.88;;;;;;;-0.23;100.00;100825.88;6116818;23;20070;-65
2022/04/02 02:07:17;;;;;;;2.45;2.35;;;;;;;-0.29;100.00;100837.97;6115267;23;20027;-65
2022/04/02 02:09:44;;;;;;;2.13;2.03;;;;;;;-0.13;100.00;100846.47;6097666;23;20233;-65
2022/04/02 02:12:10;;;;;;;2.60;2.50;;;;;;;-0.09;100.00;100864.50;6106053;23;20371;-65
2022/04/02 02:14:37;;;;;;;2.20;2.10;;;;;;;-0.29;100.00;100823.34;6119206;23;20019;-65
2022/04/02 02:17:04;;;;;;;4.07;3.88;;;;;;;-0.25;100.00;100845.66;6100703;23;20421;-66
2022/04/02 02:19:30;;;;;;;2.15;2.05;;;;;;;-0.24;100.00;100837.09;6116223;23;20059;-65
2022/04/02 02:21:57;;;;;;;4.03;3.85;;;;;;;-0.13;100.00;100849.91;6122823;23;20120;-65
2022/04/02 02:24:24;;;;;;;2.20;2.10;;;;;;;-0.25;100.00;100831.94;6113984;23;20012;-65
2022/04/02 02:26:52;;;;;;;3.83;3.67;;;;;;;-0.16;100.00;100843.91;6119370;23;20033;-63
2022/04/02 02:29:18;;;;;;;2.50;2.40;;;;;;;-0.27;100.00;100828.50;6124025;23;20351;-64
2022/04/02 02:31:45;;;;;;;2.35;2.25;;;;;;;-0.10;100.00;100855.06;6100171;23;20022;-65
2022/04/02 02:36:57;;;;;;;4.00;3.80;;;;;;;-0.15;100.00;100850.78;6112390;23;20363;-65
2022/04/02 02:39:23;;;;;;;2.60;2.50;;;;;;;-0.25;100.00;100835.34;6119620;23;20039;-65
2022/04/02 02:41:50;;;;;;;3.45;3.33;;;;;;;-0.34;100.00;100817.38;6124748;23;20364;-65
2022/04/02 02:44:16;;;;;;;2.22;2.13;;;;;;;-0.31;100.00;100821.66;6124532;23;20021;-65
2022/04/02 02:46:43;;;;;;;2.35;2.25;;;;;;;-0.16;100.00;100841.31;6121323;23;20036;-65
2022/04/02 02:49:09;;;;;;;2.20;2.10;;;;;;;-0.16;100.00;100849.94;6117147;23;20113;-66
2022/04/02 02:51:36;;;;;;;2.00;1.90;;;;;;;0.07;100.00;100873.00;6118068;23;20030;-65
2022/04/02 02:54:02;;;;;;;4.15;3.95;;;;;;;-0.36;98.69;100795.91;6113990;23;20092;-65
2022/04/02 02:56:29;;;;;;;2.45;2.35;;;;;;;0.03;97.31;100857.56;6117688;23;20027;-65
2022/04/02 02:58:55;;;;;;;4.30;4.10;;;;;;;0.19;94.79;100865.19;6121657;23;20198;-65
2022/04/02 03:01:22;;;;;;;2.33;2.22;;;;;;;0.17;95.41;100858.31;6111239;23;20181;-65
2022/04/02 03:03:48;;;;;;;3.15;3.03;;;;;;;-0.07;95.42;100824.06;6114865;23;20017;-65
2022/04/02 03:06:15;;;;;;;2.40;2.30;;;;;;;-0.05;95.36;100835.25;6092696;23;20073;-65
2022/04/02 03:08:41;;;;;;;2.15;2.05;;;;;;;0.20;93.85;100873.78;6111812;23;20039;-66
2022/04/02 03:11:08;;;;;;;2.35;2.25;;;;;;;0.12;93.51;100854.91;6114468;23;21129;-65
2022/04/02 03:13:34;;;;;;;2.13;2.03;;;;;;;0.23;93.42;100873.75;6116894;23;20014;-65
2022/04/02 03:16:02;;;;;;;3.78;3.65;;;;;;;0.14;92.65;100863.50;6121797;23;20561;-65
2022/04/02 03:18:28;;;;;;;2.40;2.30;;;;;;;0.23;92.52;100878.94;6119126;23;20020;-65
2022/04/02 03:20:55;;;;;;;3.60;3.50;;;;;;;0.24;91.94;100872.03;6108261;23;20029;-65
2022/04/02 03:23:21;;;;;;;2.30;2.20;;;;;;;0.26;91.59;100881.50;6102043;23;20021;-64
2022/04/02 03:25:47;;;;;;;2.38;2.28;;;;;;;0.30;90.86;100877.16;6110018;23;20049;-64
2022/04/02 03:28:14;;;;;;;2.30;2.20;;;;;;;0.28;92.08;100876.31;6101500;23;20016;-65
2022/04/02 03:30:40;;;;;;;2.22;2.13;;;;;;;0.08;92.44;100853.22;6105504;23;20030;-65
2022/04/02 03:33:07;;;;;;;3.20;3.10;;;;;;;0.32;90.91;100884.03;6097328;23;20035;-65
2022/04/02 03:35:33;;;;;;;2.00;1.90;;;;;;;0.30;92.29;100885.78;6103546;23;20301;-65
2022/04/02 03:38:00;;;;;;;3.78;3.65;;;;;;;0.26;92.72;100876.34;6104853;23;20112;-65
2022/04/02 03:40:27;;;;;;;2.30;2.20;;;;;;;0.33;89.94;100893.47;6110736;23;20017;-65
2022/04/02 03:42:54;;;;;;;4.72;4.53;;;;;;;0.32;87.95;100884.03;6107674;23;20021;-65
2022/04/02 03:45:22;;;;;;;2.20;2.10;;;;;;;0.38;87.72;100888.28;6104175;23;20025;-65
2022/04/02 03:47:49;;;;;;;2.65;2.55;;;;;;;0.36;88.09;100885.72;6091087;23;20029;-65
2022/04/02 03:50:16;;;;;;;17.73;16.83;;;;;;;-0.70;89.75;100711.03;6060338;23;20476;-64
2022/04/02 03:52:43;;;;;;;2.20;2.10;;;;;;;0.32;88.54;100884.03;6014738;23;20052;-65
2022/04/02 03:55:10;;;;;;;2.50;2.40;;;;;;;0.28;88.34;100890.09;6097647;23;20866;-64
2022/04/02 03:57:36;;;;;;;2.40;2.30;;;;;;;0.21;86.32;100866.91;6094305;23;20399;-65
2022/04/02 04:00:06;;;;;;;2.25;2.15;;;;;;;0.34;87.33;100894.34;6103820;23;20053;-65
2022/04/02 04:02:34;;;;;;;2.40;2.30;;;;;;;0.36;85.54;100892.59;6105715;23;20018;-65
2022/04/02 04:05:01;;;;;;;3.78;3.65;;;;;;;0.38;84.77;100896.03;6086549;23;20029;-64
2022/04/02 04:07:27;;;;;;;2.30;2.20;;;;;;;0.39;83.88;100896.00;6095949;23;20038;-65
2022/04/02 04:09:54;;;;;;;4.10;3.90;;;;;;;0.24;83.85;100872.91;6094676;23;20021;-65
2022/04/02 04:12:20;;;;;;;2.50;2.40;;;;;;;0.40;82.78;100907.19;6100997;23;20025;-65
2022/04/02 04:14:47;;;;;;;2.30;2.20;;;;;;;0.38;83.88;100909.81;6099954;23;20032;-64
2022/04/02 04:17:14;;;;;;;2.70;2.60;;;;;;;0.18;85.23;100888.41;6116933;23;20309;-65
2022/04/02 04:19:41;;;;;;;2.30;2.20;;;;;;;0.34;85.09;100910.69;6113073;23;20460;-65
2022/04/02 04:22:07;;;;;;;2.42;2.33;;;;;;;0.33;84.91;100914.13;6096824;23;20017;-64
2022/04/02 04:24:33;;;;;;;2.30;2.20;;;;;;;0.15;85.43;100889.28;6124489;23;20027;-65
2022/04/02 04:27:00;;;;;;;3.97;3.80;;;;;;;0.29;84.75;100912.44;6109498;23;20017;-65
2022/04/02 04:29:26;;;;;;;2.78;2.67;;;;;;;0.27;84.74;100911.59;6116770;23;20019;-64
2022/04/02 04:31:53;;;;;;;3.67;3.58;;;;;;;-0.01;83.81;100869.63;6101125;23;20036;-65
2022/04/02 04:34:19;;;;;;;2.50;2.40;;;;;;;0.13;83.28;100903.94;6101632;23;20045;-65
2022/04/02 04:36:46;;;;;;;2.42;2.33;;;;;;;0.30;82.33;100916.75;6124254;23;20024;-64
2022/04/02 04:39:12;;;;;;;2.13;2.03;;;;;;;0.34;81.96;100925.31;6113670;23;20333;-65
2022/04/02 04:41:41;;;;;;;2.28;2.17;;;;;;;0.29;83.14;100927.94;6117036;23;20605;-66
2022/04/02 04:44:07;;;;;;;2.90;2.80;;;;;;;0.28;83.14;100933.97;6098074;23;20033;-65
2022/04/02 04:46:34;;;;;;;2.33;2.22;;;;;;;0.08;81.54;100905.69;6120532;23;20344;-66
2022/04/02 04:49:00;;;;;;;4.25;4.05;;;;;;;0.29;81.76;100940.84;6109416;23;20033;-65
2022/04/02 04:51:27;;;;;;;2.20;2.10;;;;;;;0.27;82.22;100941.72;6121602;23;20419;-65
2022/04/02 04:53:53;;;;;;;4.30;4.10;;;;;;;0.24;82.75;100937.44;6099197;23;20040;-64
2022/04/02 04:56:20;;;;;;;2.20;2.10;;;;;;;0.23;82.51;100940.03;6116426;23;20029;-64
2022/04/02 04:58:47;;;;;;;2.40;2.30;;;;;;;0.11;81.51;100920.31;6112780;23;20013;-64
2022/04/02 05:01:13;;;;;;;2.20;2.10;;;;;;;0.24;81.88;100949.47;6112081;23;20438;-65
2022/04/02 05:03:40;;;;;;;2.13;2.03;;;;;;;0.26;81.98;100966.69;6117200;23;20021;-66
2022/04/02 05:06:10;;;;;;;3.17;3.08;;;;;;;-0.10;82.01;100901.50;6103489;23;20085;-65
2022/04/02 05:08:36;;;;;;;2.20;2.10;;;;;;;-0.11;80.68;100910.09;6117790;23;20033;-65
2022/04/02 05:11:04;;;;;;;3.92;3.75;;;;;;;0.27;80.76;100965.78;6111352;23;20042;-65
2022/04/02 05:13:30;;;;;;;2.30;2.20;;;;;;;0.23;80.97;100961.53;6109311;23;20029;-65
2022/04/02 05:15:57;;;;;;;4.20;4.00;;;;;;;0.23;80.49;100965.84;6128511;23;20013;-65
2022/04/02 05:18:24;;;;;;;2.42;2.33;;;;;;;0.21;80.67;100970.16;6113977;23;20153;-65
2022/04/02 05:20:50;;;;;;;2.30;2.20;;;;;;;0.23;81.46;100965.84;6127833;23;20101;-64
2022/04/02 05:23:17;;;;;;;2.30;2.20;;;;;;;0.10;80.96;100958.16;6118296;23;20025;-65
2022/04/02 05:25:44;;;;;;;2.22;2.13;;;;;;;0.15;80.35;100965.88;6121587;23;20025;-67
2022/04/02 05:28:11;;;;;;;2.50;2.40;;;;;;;0.05;81.00;100946.13;6116103;23;20014;-67
2022/04/02 05:30:38;;;;;;;2.30;2.20;;;;;;;0.21;81.30;100988.22;6111474;23;20052;-67
2022/04/02 05:33:05;;;;;;;4.22;4.03;;;;;;;0.22;80.59;100989.91;6114131;23;20041;-65
2022/04/02 05:35:51;;;;;;;3.58;3.42;;;;;;;0.22;80.61;100990.78;6112353;23;20517;-65
2022/04/02 05:38:18;;;;;;;2.33;2.22;;;;;;;0.03;80.80;100960.78;6099924;23;20368;-66
2022/04/02 05:40:45;;;;;;;2.38;2.28;;;;;;;0.10;80.55;100970.19;6121314;23;20073;-66
2022/04/02 05:43:11;;;;;;;2.40;2.30;;;;;;;0.29;78.85;100999.34;6111339;23;20045;-64
2022/04/02 05:45:38;;;;;;;2.40;2.30;;;;;;;0.26;80.67;101005.41;6114546;23;20153;-65
2022/04/02 05:48:04;;;;;;;4.10;3.90;;;;;;;0.24;80.10;101001.09;6117797;23;20545;-65
2022/04/02 05:50:31;;;;;;;2.30;2.20;;;;;;;0.30;80.39;101003.63;6112063;23;20444;-64
2022/04/02 05:53:04;;;;;;;4.18;3.97;;;;;;;0.07;79.18;100972.78;6130257;23;20070;-65
2022/04/02 05:55:31;;;;;;;2.60;2.50;;;;;;;0.29;80.58;101020.84;6106346;23;20070;-64
2022/04/02 05:57:58;;;;;;;4.38;4.18;;;;;;;0.11;79.52;100969.34;6114877;23;20323;-65
2022/04/02 06:00:25;;;;;;;2.35;2.25;;;;;;;0.35;78.65;101023.41;6116876;23;20097;-65
2022/04/02 06:02:59;;;;;;;3.28;3.17;;;;;;;0.23;79.29;101004.56;6114214;23;20083;-65
2022/04/02 06:05:25;;;;;;;2.50;2.40;;;;;;;0.34;78.96;101033.72;6114004;23;20386;-64
2022/04/02 06:07:52;;;;;;;4.20;4.00;;;;;;;0.35;78.49;101031.16;6110094;23;20104;-66
2022/04/02 06:10:18;;;;;;;2.40;2.30;;;;;;;0.35;79.12;101035.47;6112291;23;20083;-65
2022/04/02 06:12:47;;;;;;;2.38;2.28;;;;;;;0.37;81.00;101033.72;6114216;23;20041;-65
2022/04/02 06:15:13;;;;;;;2.40;2.30;;;;;;;0.30;79.27;101021.69;6115298;23;20084;-65
2022/04/02 06:17:39;;;;;;;2.50;2.40;;;;;;;0.34;79.13;101032.03;6119326;23;20250;-65
2022/04/02 06:20:07;;;;;;;2.40;2.30;;;;;;;0.41;78.58;101050.06;6106001;23;20479;-66
2022/04/02 06:22:34;;;;;;;2.55;2.45;;;;;;;0.26;78.90;101023.47;6087685;23;20025;-65
2022/04/02 06:25:01;;;;;;;3.92;3.78;;;;;;;0.37;78.92;101038.91;6087040;23;20106;-65
2022/04/02 06:27:28;;;;;;;2.45;2.35;;;;;;;0.44;79.56;101050.91;6087384;23;20085;-64
2022/04/02 06:29:57;;;;;;;3.58;3.47;;;;;;;0.44;77.75;101052.63;6080508;23;20077;-66
2022/04/02 06:32:24;;;;;;;2.70;2.60;;;;;;;0.46;79.44;101056.94;6089463;23;20147;-65
2022/04/02 06:34:51;;;;;;;4.07;3.90;;;;;;;0.31;79.61;101037.19;6076496;23;20032;-64
2022/04/02 06:37:17;;;;;;;2.42;2.33;;;;;;;0.47;80.45;101062.94;6071521;23;20006;-67
2022/04/02 06:39:44;;;;;;;2.65;2.50;;;;;;;0.47;79.29;101065.53;6111456;23;20024;-66
2022/04/02 06:42:11;;;;;;;2.58;2.47;;;;;;;0.41;79.82;101050.91;6094552;23;20017;-66
2022/04/02 06:44:37;;;;;;;2.40;2.30;;;;;;;0.43;78.18;101064.69;6103686;23;20109;-67
2022/04/02 06:47:04;;;;;;;4.40;4.20;;;;;;;0.19;78.05;101008.84;6057844;23;20458;-67
2022/04/02 06:49:31;;;;;;;2.60;2.50;;;;;;;0.53;78.86;101073.25;6105864;23;20809;-66
2022/04/02 06:51:59;;;;;;;4.28;4.07;;;;;;;0.39;79.58;101044.91;6085306;23;20033;-66
2022/04/02 06:54:26;;;;;;;2.60;2.50;;;;;;;0.22;78.02;101020.88;6113238;23;20017;-66
2022/04/02 06:56:52;;;;;;;3.65;3.53;;;;;;;0.45;78.42;101052.63;6079072;23;20415;-66
2022/04/02 06:59:18;;;;;;;2.50;2.40;;;;;;;0.46;77.11;101066.38;6082691;23;20963;-66
2022/04/02 07:01:45;;;;;;;2.67;2.58;;;;;;;0.70;76.82;101079.19;6117295;23;20085;-67
2022/04/02 07:04:11;;;;;;;2.88;2.78;;;;;;;0.69;77.52;101082.63;6077152;23;20133;-65
2022/04/02 07:06:44;;;;;;;2.40;2.30;;;;;;;0.71;77.69;101098.97;6107429;23;20021;-64
2022/04/02 07:09:12;;;;;;;2.40;2.30;;;;;;;0.62;77.51;101078.34;6080244;23;20030;-65
2022/04/02 07:11:38;;;;;;;2.50;2.40;;;;;;;0.76;77.03;101096.34;6108109;23;20013;-63
2022/04/02 07:14:05;;;;;;;3.97;3.80;;;;;;;0.82;78.49;101091.16;6084134;23;20518;-66
2022/04/02 07:16:31;;;;;;;2.97;2.88;;;;;;;0.71;77.92;101065.41;6108882;23;20183;-66
2022/04/02 07:19:00;;;;;;;4.25;4.05;;;;;;;0.94;77.76;101109.19;6082591;23;20013;-64
2022/04/02 07:21:27;;;;;;;2.45;2.35;;;;;;;0.95;77.19;101097.97;6113902;23;20183;-64
2022/04/02 07:23:55;;;;;;;4.63;4.43;;;;;;;0.70;77.67;101053.38;6107072;23;20454;-66
2022/04/02 07:26:22;;;;;;;2.63;2.53;;;;;;;1.02;75.44;101101.38;6112618;23;20032;-66
2022/04/02 07:28:51;;;;;;;3.05;2.95;;;;;;;0.85;75.94;101072.22;6083369;23;20025;-66
2022/04/02 07:31:17;;;;;;;2.60;2.50;;;;;;;1.11;75.52;101113.41;6116856;23;20069;-64
2022/04/02 07:33:44;;;;;;;2.60;2.50;;;;;;;1.16;75.71;101121.97;6099226;23;20185;-66
2022/04/02 07:36:36;;;;;;;2.90;2.80;;;;;;;1.03;75.31;101071.25;6109441;23;20438;-67
2022/04/02 07:39:13;;;;;;;4.50;4.30;;;;;;;1.18;73.65;101125.41;6115258;23;20520;-66
2022/04/02 07:41:49;;;;;;;2.53;2.42;;;;;;;1.23;72.86;101138.31;6116889;23;20016;-67
2022/04/02 07:44:38;;;;;;;5.88;2.83;;;;;;;1.39;75.14;101129.56;6088276;23;20017;-67
2022/04/02 07:47:06;;;;;;;3.83;3.70;;;;;;;1.32;74.50;101113.25;6141723;23;20095;-66
2022/04/02 07:49:40;;;;;;;2.90;2.80;;;;;;;1.35;73.64;101120.13;6128652;23;20436;-64
2022/04/02 07:52:08;;;;;;;3.22;3.13;;;;;;;1.42;71.07;101139.03;6086190;23;20343;-67
2022/04/02 07:54:41;;;;;;;2.70;2.60;;;;;;;1.54;72.81;101145.00;6105409;23;20068;-66
2022/04/02 07:57:09;;;;;;;2.78;2.67;;;;;;;1.58;71.71;101144.09;6105542;23;20028;-65
2022/04/02 07:59:40;;;;;;;2.60;2.50;;;;;;;1.11;70.59;101093.56;6107142;23;20029;-66
2022/04/02 08:05:12;;;;;;;2.50;2.40;;;;;;;1.43;71.74;101140.75;5976959;23;20078;-67
2022/04/02 08:07:49;;;;;;;2.60;2.50;;;;;;;1.56;70.37;101163.94;6092216;23;20076;-66
2022/04/02 08:10:18;;;;;;;2.90;2.80;;;;;;;1.54;71.47;101157.94;6082928;23;20022;-65
2022/04/02 08:12:45;;;;;;;2.63;2.53;;;;;;;1.55;72.74;101132.91;6099656;23;20045;-66
2022/04/02 08:15:16;;;;;;;2.97;2.88;;;;;;;1.72;71.66;101159.47;6075521;23;20025;-64
2022/04/02 08:17:44;;;;;;;2.90;2.80;;;;;;;1.79;71.96;101161.16;6110408;23;20029;-65
2022/04/02 08:20:15;;;;;;;2.70;2.60;;;;;;;1.76;69.74;101165.50;6100443;23;20022;-66
2022/04/02 08:22:43;;;;;;;2.80;2.70;;;;;;;1.85;71.33;101152.47;6106685;23;20036;-64
2022/04/02 08:25:10;;;;;;;2.75;2.65;;;;;;;1.87;70.49;101174.03;6100526;23;20220;-66
2022/04/02 08:27:37;;;;;;;2.55;2.45;;;;;;;1.87;70.45;101171.44;6124234;23;20027;-67
2022/04/02 08:30:09;;;;;;;4.38;4.18;;;;;;;1.98;70.18;101172.22;6106648;23;20027;-66
2022/04/02 08:32:46;;;;;;;2.60;2.50;;;;;;;2.02;70.98;101157.50;6112768;23;20041;-66
2022/04/02 08:35:13;;;;;;;2.60;2.50;;;;;;;2.01;70.55;101160.13;6096925;23;20060;-67
2022/04/02 08:37:56;;;;;;;2.65;2.55;;;;;;;2.24;68.81;101185.78;6112398;23;20029;-66
2022/04/02 08:40:46;;;;;;;2.50;2.40;;;;;;;1.90;67.47;101126.56;6111019;23;20025;-67
2022/04/02 08:43:34;;;;;;;2.60;2.50;;;;;;;2.23;67.18;101186.66;6117666;23;20092;-66
2022/04/02 08:46:22;;;;;;;4.13;3.92;;;;;;;1.23;70.93;101003.88;6112023;23;20040;-67
2022/04/02 08:48:59;;;;;;;2.88;2.78;;;;;;;2.40;70.96;101154.50;6110241;23;20041;-64
2022/04/02 08:51:40;;;;;;;2.60;2.50;;;;;;;2.31;68.09;101146.84;6088028;23;20014;-65
2022/04/02 08:54:26;;;;;;;3.50;3.40;;;;;;;2.27;67.07;101180.56;6083067;23;20029;-67
2022/04/02 08:56:57;;;;;;;4.15;3.95;;;;;;;2.51;67.38;101195.00;6106954;23;20029;-65
2022/04/02 08:59:36;;;;;;;2.60;2.50;;;;;;;2.31;66.99;101184.84;6120562;23;20098;-65
2022/04/02 09:02:50;;;;;;;4.35;4.15;;;;;;;2.14;67.52;101182.41;6093225;23;20525;-65
2022/04/02 09:05:55;;;;;;;2.45;2.35;;;;;;;2.43;67.46;101205.44;6061190;23;20524;-65
2022/04/02 09:08:34;;;;;;;2.80;2.70;;;;;;;2.49;66.31;101215.75;6094128;23;20018;-64
2022/04/02 09:11:25;;;;;;;4.07;3.88;;;;;;;2.38;68.07;101223.59;6098846;23;20033;-65
2022/04/02 09:14:34;;;;;;;4.10;3.90;;;;;;;2.55;66.90;101210.50;6088198;23;20043;-70
2022/04/02 09:17:31;;;;;;;4.35;4.15;;;;;;;2.67;66.86;101222.47;6084873;23;20089;-66
2022/04/02 09:20:35;;;;;;;4.15;3.95;;;;;;;2.69;65.87;101222.44;6089992;23;20072;-66
2022/04/02 09:23:11;;;;;;;4.28;4.07;;;;;;;2.34;65.72;101231.41;6071708;23;20517;-66
2022/04/02 09:26:01;;;;;;;2.50;2.40;;;;;;;2.46;65.30;101235.63;6103792;23;20025;-66
2022/04/02 09:28:27;;;;;;;2.67;2.58;;;;;;;2.62;66.00;101234.59;6108614;23;20099;-68
2022/04/02 09:31:15;;;;;;;4.15;3.95;;;;;;;2.66;66.30;101246.63;6115048;23;20033;-68
2022/04/02 09:33:47;;;;;;;2.80;2.70;;;;;;;2.88;67.30;101226.53;6110148;23;20021;-66
2022/04/02 09:36:31;;;;;;;2.58;2.47;;;;;;;2.70;64.63;101239.69;6099386;23;20776;-66
2022/04/02 09:39:25;;;;;;;4.22;4.03;;;;;;;2.80;64.98;101244.75;6094284;23;20036;-66
2022/04/02 09:41:58;;;;;;;3.97;3.80;;;;;;;2.93;64.77;101242.91;6108292;23;20036;-66
2022/04/02 09:44:36;;;;;;;2.90;2.80;;;;;;;2.75;64.06;101233.59;6091364;23;20037;-66
2022/04/02 09:47:05;;;;;;;4.45;4.25;;;;;;;2.59;65.74;101245.84;6098027;23;20025;-66
2022/04/02 09:49:47;;;;;;;2.90;2.80;;;;;;;2.46;66.05;101248.59;6098479;23;20022;-66
2022/04/02 09:52:20;;;;;;;5.25;5.05;;;;;;;2.81;66.34;101253.41;6091930;23;20018;-66
2022/04/02 09:55:20;;;;;;;2.92;2.83;;;;;;;2.67;66.11;101229.38;6108496;23;20018;-64
2022/04/02 09:58:21;;;;;;;2.83;2.72;;;;;;;2.63;63.73;101257.06;6109255;23;20021;-65
2022/04/02 10:01:13;;;;;;;3.55;3.42;;;;;;;2.70;66.91;101266.47;6089774;23;20029;-66
2022/04/02 10:03:53;;;;;;;3.00;2.90;;;;;;;2.86;66.51;101281.84;6112592;23;20025;-66
2022/04/02 10:06:39;;;;;;;2.90;2.80;;;;;;;2.95;64.29;101267.06;6092212;23;20040;-66
2022/04/02 10:09:19;;;;;;;4.25;4.05;;;;;;;2.98;63.81;101266.16;6111467;23;20025;-65
2022/04/02 10:11:56;;;;;;;2.95;2.85;;;;;;;2.85;65.20;101260.28;6115668;23;20264;-65
2022/04/02 10:14:25;;;;;;;3.00;2.90;;;;;;;2.89;65.70;101266.28;6117575;23;20021;-66
2022/04/02 10:16:55;;;;;;;4.32;4.13;;;;;;;2.83;64.71;101249.06;6110439;23;20096;-64
2022/04/02 10:19:31;;;;;;;2.90;2.80;;;;;;;2.68;65.16;101216.38;6092512;23;20096;-65
2022/04/02 10:22:12;;;;;;;4.40;4.20;;;;;;;2.93;62.57;101242.91;6114937;23;20022;-65
2022/04/02 10:24:40;;;;;;;2.80;2.70;;;;;;;3.10;61.23;101267.75;6112568;23;20013;-65
2022/04/02 10:27:13;;;;;;;3.92;3.78;;;;;;;3.09;63.12;101240.97;6099541;23;20813;-66
2022/04/02 10:30:00;;;;;;;3.28;3.10;;;;;;;3.45;62.95;101263.84;6103116;23;20025;-66
2022/04/02 10:32:39;;;;;;;3.00;2.90;;;;;;;3.39;62.22;101281.22;6105496;23;20018;-66
2022/04/02 10:35:11;;;;;;;3.97;3.80;;;;;;;3.34;62.24;101264.00;6088574;23;20025;-66
2022/04/02 10:38:05;;;;;;;2.80;2.70;;;;;;;3.49;62.70;101265.50;6113422;23;20021;-66
2022/04/02 10:40:39;;;;;;;3.53;3.42;;;;;;;3.07;60.25;101234.09;6068945;23;20014;-65
2022/04/02 10:43:14;;;;;;;4.30;4.10;;;;;;;3.12;62.42;101253.03;6129389;23;20163;-66
2022/04/02 10:45:41;;;;;;;2.83;2.72;;;;;;;3.23;62.90;101271.03;6109121;23;20041;-65
2022/04/02 10:48:13;;;;;;;2.90;2.80;;;;;;;2.95;63.05;101197.06;6117466;23;20022;-64
2022/04/02 10:50:42;;;;;;;2.90;2.80;;;;;;;3.36;62.94;101268.28;6115390;23;20045;-66
2022/04/02 10:53:13;;;;;;;4.38;4.20;;;;;;;3.28;61.27;101267.50;6113570;23;20107;-66
2022/04/02 10:55:45;;;;;;;3.20;3.10;;;;;;;3.62;62.01;101272.25;6097421;23;20017;-66
2022/04/02 10:58:13;;;;;;;2.75;2.65;;;;;;;3.56;60.38;101265.41;6109999;23;20021;-65
2022/04/02 11:00:47;;;;;;;2.92;2.83;;;;;;;3.54;59.05;101256.78;6123043;23;20077;-66
2022/04/02 11:03:56;;;;;;;3.08;2.97;;;;;;;3.85;59.36;101255.47;6103142;23;20044;-65
2022/04/02 11:06:44;;;;;;;2.90;2.80;;;;;;;3.93;60.29;101270.06;5969953;23;20110;-65
2022/04/02 11:09:27;;;;;;;2.90;2.80;;;;;;;3.88;57.98;101268.44;6096349;23;20032;-66
2022/04/02 11:11:56;;;;;;;4.47;4.28;;;;;;;3.65;59.87;101232.41;6111123;23;20028;-65
2022/04/02 11:14:24;;;;;;;3.00;2.90;;;;;;;3.75;60.16;101260.81;6102466;23;20017;-65
2022/04/02 11:16:50;;;;;;;3.20;3.10;;;;;;;3.93;56.86;101274.38;6124223;23;20249;-64
2022/04/02 11:22:14;;;;;;;3.00;2.90;;;;;;;4.29;56.27;101275.56;6122585;23;20042;-66
2022/04/02 11:25:06;;;;;;;3.00;2.90;;;;;;;4.22;55.67;101260.09;6097014;23;20748;-66
2022/04/02 11:27:38;;;;;;;2.85;2.75;;;;;;;4.02;55.77;101274.25;6111961;23;20045;-66
2022/04/02 11:30:07;;;;;;;3.08;2.97;;;;;;;4.15;55.30;101286.19;6100824;23;20609;-66
2022/04/02 11:32:42;;;;;;;3.00;2.90;;;;;;;4.18;56.05;101269.69;6111972;23;20029;-66
2022/04/02 11:35:22;;;;;;;3.00;2.90;;;;;;;4.64;56.76;101274.06;6124616;23;20092;-66
2022/04/02 11:38:25;;;;;;;3.25;3.15;;;;;;;4.58;57.79;101284.59;6101889;23;20078;-65
2022/04/02 11:41:01;;;;;;;4.43;4.22;;;;;;;3.97;59.65;101292.50;6058686;23;20099;-66
2022/04/02 11:43:45;;;;;;;3.15;3.05;;;;;;;3.90;64.08;101280.50;6111155;23;20013;-66
2022/04/02 11:46:16;;;;;;;3.00;2.90;;;;;;;3.83;62.94;101291.88;6111778;23;20227;-65
2022/04/02 11:48:54;;;;;;;3.38;3.15;;;;;;;3.82;64.37;101295.34;6118498;23;20441;-66
2022/04/02 11:51:30;;;;;;;3.20;3.10;;;;;;;3.48;65.02;101276.78;6108006;23;20052;-65
2022/04/02 11:54:10;;;;;;;4.28;4.07;;;;;;;3.71;64.99;101303.28;6093903;23;20705;-66
2022/04/02 11:56:46;;;;;;;3.15;3.05;;;;;;;3.82;63.71;101303.13;6110974;23;20100;-67